Terminal Aerodrome Forecast
Issued by NWS

Home | Current Version | Previous Version | Text Only | Print | Product List | Glossary On
Versions: 1 2 3 4 5 6 7 8 9 10 11 12
000
FTUS46 KSGX 231733
TAFCRQ
TAF
KCRQ 231733Z 2318/2418 VRB04KT P6SM SKC
     FM232000 27008KT P6SM SKC
     FM240000 VRB04KT P6SM SKC
     FM241000 VRB04KT P6SM SKC WS010/07025KT
     FM241500 07012G20KT P6SM SKC=

USA.gov is the U.S. government's official web portal to all federal, state and local government web resources and services.